Time;durP1;ratioP1;P1;durP2;ratioP2;P2;SDS_P1;SDS_P2;PMS_P1;PMS_P2;Temp;Humidity;BMP_temperature;BMP_pressure;BME280_temperature;BME280_humidity;BME280_pressure;Samples;Min_cycle;Max_cycle;Signal;HPM_P1;HPM_P2
2022/06/29 00:06:42;;;;;;;16.43;10.20;;;;;;;23.17;74.10;100169.81;31034771;28;20064;-71
2022/06/29 00:21:44;;;;;;;15.47;10.93;;;;;;;22.97;75.12;100172.84;31045574;28;20058;-71
2022/06/29 00:36:47;;;;;;;16.13;11.13;;;;;;;22.89;76.15;100169.06;31178791;28;20447;-70
2022/06/29 00:51:54;;;;;;;16.43;10.63;;;;;;;22.82;77.04;100177.88;31205512;28;20049;-69
2022/06/29 01:06:56;;;;;;;16.67;11.40;;;;;;;22.73;77.88;100176.81;31207946;28;20042;-70
2022/06/29 01:22:29;;;;;;;20.40;11.80;;;;;;;22.61;79.71;100180.81;31191421;28;20053;-71
2022/06/29 01:37:31;;;;;;;21.00;12.75;;;;;;;22.51;79.65;100198.88;31182127;28;20161;-71
2022/06/29 01:52:33;;;;;;;20.80;12.67;;;;;;;22.37;81.05;100219.22;31207997;28;20049;-70
2022/06/29 02:07:35;;;;;;;20.67;12.63;;;;;;;22.22;82.31;100227.69;31175843;28;20141;-70
2022/06/29 02:22:37;;;;;;;18.15;12.00;;;;;;;22.23;83.26;100222.91;31183174;28;20057;-69
2022/06/29 02:37:39;;;;;;;20.98;12.43;;;;;;;22.28;83.88;100213.88;31183806;28;20046;-70
2022/06/29 02:52:41;;;;;;;19.17;12.20;;;;;;;22.47;83.94;100214.97;31181919;28;20048;-71
2022/06/29 03:07:43;;;;;;;21.40;12.43;;;;;;;22.73;83.96;100210.00;31162411;28;20057;-70
2022/06/29 03:22:46;;;;;;;25.17;14.27;;;;;;;23.11;82.84;100219.69;31172248;28;20061;-71
2022/06/29 03:37:50;;;;;;;23.37;14.53;;;;;;;23.39;81.61;100219.66;31176269;28;20049;-70
2022/06/29 03:52:52;;;;;;;26.65;14.32;;;;;;;23.70;80.80;100217.91;31170475;28;20068;-71
2022/06/29 04:07:54;;;;;;;23.60;14.30;;;;;;;24.31;78.69;100217.03;31155368;28;20057;-71
2022/06/29 04:22:55;;;;;;;22.03;14.63;;;;;;;24.75;77.20;100227.91;31171786;28;20060;-71
2022/06/29 04:37:57;;;;;;;19.20;14.17;;;;;;;25.41;74.80;100222.44;31129515;28;20061;-70
2022/06/29 04:52:59;;;;;;;;;;;;;;;25.83;73.15;100244.03;31163445;28;20049;-70
2022/06/29 05:08:01;;;;;;;23.85;15.23;;;;;;;26.45;71.45;100262.88;31147931;28;19921;-71
2022/06/29 05:23:04;;;;;;;19.30;13.15;;;;;;;26.93;69.63;100266.81;31181224;28;20058;-70
2022/06/29 05:38:06;;;;;;;19.67;14.05;;;;;;;27.47;67.97;100283.97;31176618;28;20057;-72
2022/06/29 05:53:08;;;;;;;19.13;12.80;;;;;;;27.63;66.56;100275.91;31198709;28;20046;-70
2022/06/29 06:08:12;;;;;;;15.13;12.43;;;;;;;28.26;64.66;100274.28;31196958;28;20053;-71
2022/06/29 06:23:15;;;;;;;17.60;11.93;;;;;;;28.76;61.57;100271.19;31201310;28;20049;-72
2022/06/29 06:38:17;;;;;;;18.63;13.50;;;;;;;29.33;60.12;100265.84;31180799;28;20053;-71
2022/06/29 06:53:20;;;;;;;15.13;10.75;;;;;;;30.03;56.74;100268.69;31171692;28;20513;-71
2022/06/29 07:08:22;;;;;;;14.82;9.68;;;;;;;30.46;54.08;100267.25;31151639;28;20048;-72
2022/06/29 07:23:24;;;;;;;12.07;9.70;;;;;;;30.75;52.87;100279.88;31179177;28;20053;-71
2022/06/29 07:38:26;;;;;;;14.85;10.65;;;;;;;31.10;51.62;100283.16;31171640;28;20050;-72
2022/06/29 07:53:29;;;;;;;9.55;8.10;;;;;;;31.67;47.13;100268.84;31169997;28;20046;-77
2022/06/29 08:08:31;;;;;;;9.60;7.10;;;;;;;32.48;39.65;100264.97;31148281;28;20436;-78
2022/06/29 08:23:34;;;;;;;25.40;12.68;;;;;;;32.78;39.27;100259.25;31163186;28;20050;-78
2022/06/29 08:38:36;;;;;;;11.00;8.07;;;;;;;32.95;38.00;100250.16;31155955;28;20081;-75
2022/06/29 08:53:41;;;;;;;11.32;6.70;;;;;;;33.41;34.79;100256.22;31150714;28;20104;-71
2022/06/29 09:08:43;;;;;;;10.07;5.50;;;;;;;33.68;31.82;100250.00;31165302;28;20053;-69
2022/06/29 09:23:45;;;;;;;13.65;5.70;;;;;;;33.86;31.03;100259.97;31168177;28;20053;-69
2022/06/29 09:38:47;;;;;;;5.75;5.25;;;;;;;33.84;29.71;100234.47;31173682;28;20398;-69
2022/06/29 09:53:53;;;;;;;6.35;5.18;;;;;;;34.68;29.33;100245.53;31191823;28;20050;-70
2022/06/29 10:08:56;;;;;;;6.35;5.47;;;;;;;34.87;28.61;100234.38;31160232;28;20504;-70
2022/06/29 10:24:02;;;;;;;5.68;5.05;;;;;;;35.50;28.22;100233.56;31180356;28;20050;-70
2022/06/29 10:39:04;;;;;;;8.13;5.13;;;;;;;34.61;29.82;100240.72;31188044;28;20648;-70
2022/06/29 10:54:26;;;;;;;6.65;5.30;;;;;;;33.93;29.44;100231.00;31167397;28;20052;-70
2022/06/29 11:25:05;;;;;;;8.63;5.78;;;;;;;33.39;30.72;100225.09;31175121;28;20053;-69
2022/06/29 11:40:07;;;;;;;6.03;5.32;;;;;;;32.01;34.94;100223.53;31179608;28;20052;-78
2022/06/29 11:55:09;;;;;;;6.35;5.10;;;;;;;32.36;33.72;100202.84;31136399;28;20148;-71
2022/06/29 12:10:11;;;;;;;6.95;5.55;;;;;;;31.83;34.09;100214.22;31175312;28;20069;-78
2022/06/29 12:25:15;;;;;;;6.90;5.68;;;;;;;32.44;32.49;100185.94;31169423;28;20141;-77
2022/06/29 12:40:17;;;;;;;5.75;5.15;;;;;;;32.47;33.05;100182.00;31173223;28;20046;-74
2022/06/29 12:55:21;;;;;;;6.57;5.80;;;;;;;32.14;33.97;100193.16;31215107;28;20041;-71
2022/06/29 13:10:23;;;;;;;9.85;5.68;;;;;;;32.17;33.47;100180.03;31198726;28;20069;-70
2022/06/29 13:25:25;;;;;;;5.78;5.13;;;;;;;31.80;33.51;100171.19;31191865;28;20515;-78
2022/06/29 13:40:27;;;;;;;8.45;5.80;;;;;;;31.87;33.66;100158.47;31202304;28;20503;-68
2022/06/29 13:55:29;;;;;;;15.75;5.68;;;;;;;32.03;34.25;100154.28;31182921;28;20049;-70
2022/06/29 14:10:31;;;;;;;10.63;5.88;;;;;;;31.34;35.15;100153.66;31182824;28;20050;-70
2022/06/29 14:25:33;;;;;;;14.68;5.53;;;;;;;31.24;34.44;100138.72;31189135;28;20072;-76
2022/06/29 14:40:35;;;;;;;8.07;5.88;;;;;;;31.19;34.61;100143.19;30997839;28;20046;-78
2022/06/29 14:55:38;;;;;;;9.02;6.25;;;;;;;31.37;34.63;100141.34;30934696;28;20423;-75
2022/06/29 15:10:42;;;;;;;7.03;5.55;;;;;;;31.35;34.11;100143.94;30922333;28;20054;-69
2022/06/29 15:26:04;;;;;;;8.57;5.70;;;;;;;31.15;34.74;100142.09;30959389;28;20045;-71
2022/06/29 15:41:06;;;;;;;11.48;7.53;;;;;;;30.75;35.36;100128.59;30958264;28;20054;-71
2022/06/29 15:56:11;;;;;;;11.55;6.93;;;;;;;30.34;36.42;100117.66;30955526;28;20084;-71
2022/06/29 16:11:13;;;;;;;10.48;6.70;;;;;;;30.01;37.65;100114.53;30948160;28;20061;-76
2022/06/29 16:26:15;;;;;;;9.95;7.38;;;;;;;29.95;37.78;100116.00;30926423;28;20413;-71
2022/06/29 16:41:17;;;;;;;14.90;8.10;;;;;;;29.77;38.87;100115.72;30900670;28;20058;-70
2022/06/29 16:56:19;;;;;;;10.30;7.97;;;;;;;29.51;39.41;100125.09;30923369;28;20476;-70
2022/06/29 17:11:21;;;;;;;12.55;7.80;;;;;;;29.20;39.46;100134.53;30923916;28;20058;-70
2022/06/29 17:26:23;;;;;;;8.27;5.82;;;;;;;28.97;39.88;100139.19;30945037;28;20060;-70
2022/06/29 17:41:26;;;;;;;14.00;7.43;;;;;;;28.67;40.78;100154.34;30951904;28;20058;-70
2022/06/29 17:56:28;;;;;;;7.90;5.80;;;;;;;28.33;42.36;100170.34;30964593;28;20050;-69
2022/06/29 18:11:30;;;;;;;9.57;5.65;;;;;;;28.00;43.10;100200.41;30968016;28;20076;-70
2022/06/29 18:26:34;;;;;;;9.35;5.53;;;;;;;27.62;43.98;100224.97;31013609;28;20061;-71
2022/06/29 18:41:36;;;;;;;8.93;6.22;;;;;;;27.24;45.36;100249.38;30948805;28;20058;-74
2022/06/29 18:56:38;;;;;;;17.50;11.20;;;;;;;26.91;46.14;100249.88;30923189;28;20051;-72
2022/06/29 19:11:55;;;;;;;7.93;5.03;;;;;;;26.71;46.44;100246.31;30921875;28;20577;-73
2022/06/29 19:26:57;;;;;;;9.27;5.30;;;;;;;26.45;47.58;100246.19;30942587;28;20058;-73
2022/06/29 19:41:59;;;;;;;6.10;4.07;;;;;;;26.23;47.78;100263.84;30895026;28;20054;-73
2022/06/29 19:57:03;;;;;;;5.15;3.47;;;;;;;26.01;47.59;100270.41;30908950;28;20074;-71
2022/06/29 20:12:05;;;;;;;15.73;9.18;;;;;;;25.86;47.41;100247.81;30894502;28;20520;-72
2022/06/29 20:27:07;;;;;;;4.75;3.95;;;;;;;25.66;47.40;100245.47;30902518;28;20054;-72
2022/06/29 20:42:09;;;;;;;7.38;3.50;;;;;;;25.48;47.78;100236.53;30897371;28;20069;-73
2022/06/29 20:57:12;;;;;;;4.20;3.08;;;;;;;25.27;49.13;100243.75;30941849;28;20058;-72
2022/06/29 21:12:16;;;;;;;4.10;3.35;;;;;;;25.06;50.21;100237.06;30941427;28;20050;-72
2022/06/29 21:27:18;;;;;;;6.07;3.30;;;;;;;24.91;51.32;100233.88;30953127;28;20050;-72
2022/06/29 21:42:20;;;;;;;;;;;;;;;24.72;53.19;100217.09;30946369;28;20500;-72
2022/06/29 21:57:23;;;;;;;5.72;4.20;;;;;;;24.64;52.61;100210.56;30943894;28;20368;-72
2022/06/29 22:12:25;;;;;;;8.98;5.72;;;;;;;24.44;53.60;100214.44;30924286;28;20042;-72
2022/06/29 22:27:27;;;;;;;4.97;3.90;;;;;;;24.22;54.26;100192.31;30928423;28;20054;-73
2022/06/29 22:42:29;;;;;;;4.97;3.33;;;;;;;24.01;55.52;100178.78;30933135;28;20423;-72
2022/06/29 22:57:31;;;;;;;8.55;4.15;;;;;;;23.88;56.21;100153.63;30928191;28;20054;-72
2022/06/29 23:12:33;;;;;;;4.83;3.77;;;;;;;23.73;56.82;100159.47;30928937;28;20053;-73
2022/06/29 23:27:35;;;;;;;6.67;3.93;;;;;;;23.59;57.06;100170.84;30925695;28;20505;-71
2022/06/29 23:42:37;;;;;;;7.23;4.27;;;;;;;23.41;58.30;100166.53;30938680;28;20058;-73
2022/06/29 23:57:39;;;;;;;8.70;4.13;;;;;;;23.28;58.61;100163.53;30940990;28;20050;-72
